createdAt,value
2022-08-27T00:00:46.749Z,3.10
2022-08-27T00:01:54.718Z,3.10
2022-08-27T00:03:04.392Z,3.83
2022-08-27T00:04:11.951Z,3.28
2022-08-27T00:05:20.364Z,4.13
2022-08-27T00:06:28.058Z,2.45
2022-08-27T00:07:36.124Z,3.35
2022-08-27T00:08:47.914Z,3.42
2022-08-27T00:09:54.598Z,3.50
2022-08-27T00:11:06.042Z,3.85
2022-08-27T00:12:12.807Z,4.15
2022-08-27T00:13:21.179Z,3.20
2022-08-27T00:14:31.672Z,3.22
2022-08-27T00:15:39.368Z,2.92
2022-08-27T00:16:45.109Z,3.78
2022-08-27T00:17:51.629Z,3.70
2022-08-27T00:18:58.442Z,3.20
2022-08-27T00:20:08.282Z,2.97
2022-08-27T00:21:15.200Z,3.63
2022-08-27T00:22:20.258Z,3.22
2022-08-27T00:23:28.364Z,3.03
2022-08-27T00:24:38.576Z,3.35
2022-08-27T00:25:57.215Z,3.35
2022-08-27T00:27:09.135Z,3.38
2022-08-27T00:28:19.806Z,3.30
2022-08-27T00:29:29.870Z,3.83
2022-08-27T00:30:38.958Z,4.20
2022-08-27T00:31:51.887Z,3.05
2022-08-27T00:33:00.389Z,3.83
2022-08-27T00:34:09.292Z,3.47
2022-08-27T00:35:19.259Z,2.78
2022-08-27T00:36:27.150Z,3.42
2022-08-27T00:37:36.941Z,3.15
2022-08-27T00:38:47.209Z,3.00
2022-08-27T00:39:59.147Z,3.97
2022-08-27T00:41:12.595Z,3.80
2022-08-27T00:42:23.911Z,3.17
2022-08-27T00:43:49.062Z,3.83
2022-08-27T00:45:03.425Z,2.72
2022-08-27T00:47:05.093Z,2.30
2022-08-27T00:48:18.309Z,3.47
2022-08-27T00:49:38.603Z,3.63
2022-08-27T00:50:54.826Z,3.42
2022-08-27T00:52:48.224Z,3.50
2022-08-27T00:54:01.235Z,3.33
2022-08-27T00:55:15.744Z,3.95
2022-08-27T00:56:33.665Z,3.15
2022-08-27T00:58:05.093Z,3.35
2022-08-27T00:59:19.541Z,3.10
2022-08-27T01:00:28.988Z,3.85
2022-08-27T01:01:59.533Z,3.30
2022-08-27T01:03:13.672Z,3.25
2022-08-27T01:04:23.175Z,4.15
2022-08-27T01:05:40.842Z,3.55
2022-08-27T01:06:47.688Z,3.30
2022-08-27T01:08:05.261Z,3.38
2022-08-27T01:09:19.342Z,2.97
2022-08-27T01:10:31.193Z,3.28
2022-08-27T01:11:37.240Z,4.03
2022-08-27T01:12:53.243Z,3.15
2022-08-27T01:14:01.370Z,3.38
2022-08-27T01:15:20.087Z,3.47
2022-08-27T01:16:40.545Z,3.28
2022-08-27T01:17:48.584Z,3.15
2022-08-27T01:18:59.554Z,2.95
2022-08-27T01:20:33.231Z,3.22
2022-08-27T01:22:20.385Z,3.78
2022-08-27T01:23:55.734Z,2.95
2022-08-27T01:25:13.294Z,3.28
2022-08-27T01:26:19.116Z,3.28
2022-08-27T01:27:31.905Z,3.17
2022-08-27T01:28:43.307Z,3.25
2022-08-27T01:29:55.935Z,2.97
2022-08-27T01:31:06.100Z,3.17
2022-08-27T01:32:22.166Z,3.15
2022-08-27T01:33:29.614Z,4.15
2022-08-27T01:34:34.620Z,2.63
2022-08-27T01:35:45.191Z,3.60
2022-08-27T01:36:51.120Z,3.65
2022-08-27T01:38:03.255Z,4.47
2022-08-27T01:39:16.233Z,4.05
2022-08-27T01:40:27.850Z,3.60
2022-08-27T01:41:38.493Z,2.85
2022-08-27T01:42:51.731Z,3.70
2022-08-27T01:44:00.164Z,3.38
2022-08-27T01:45:16.139Z,3.40
2022-08-27T01:46:28.456Z,3.20
2022-08-27T01:47:36.541Z,2.85
2022-08-27T01:48:46.505Z,3.90
2022-08-27T01:49:57.979Z,3.10
2022-08-27T01:51:02.957Z,3.67
2022-08-27T01:52:13.375Z,3.75
2022-08-27T01:53:27.152Z,3.17
2022-08-27T01:54:33.923Z,2.92
2022-08-27T01:55:40.329Z,2.72
2022-08-27T01:56:48.767Z,3.13
2022-08-27T01:57:55.561Z,3.63
2022-08-27T01:59:01.057Z,2.92
2022-08-27T02:00:14.689Z,3.53
2022-08-27T02:01:20.478Z,3.15
2022-08-27T02:02:26.221Z,3.75
2022-08-27T02:03:31.432Z,3.75
2022-08-27T02:04:37.074Z,3.47
2022-08-27T02:05:49.683Z,2.92
2022-08-27T02:06:54.262Z,2.83
2022-08-27T02:08:00.335Z,3.08
2022-08-27T02:09:05.389Z,3.40
2022-08-27T02:10:14.434Z,3.22
2022-08-27T02:11:20.309Z,3.65
2022-08-27T02:12:25.353Z,3.67
2022-08-27T02:13:30.277Z,3.22
2022-08-27T02:14:36.085Z,3.15
2022-08-27T02:15:44.115Z,3.40
2022-08-27T02:16:52.431Z,2.80
2022-08-27T02:17:57.843Z,3.17
2022-08-27T02:19:02.666Z,3.55
2022-08-27T02:20:09.941Z,3.65
2022-08-27T02:21:15.683Z,3.22
2022-08-27T02:22:21.111Z,3.50
2022-08-27T02:23:27.065Z,3.28
2022-08-27T02:24:32.091Z,3.17
2022-08-27T02:25:37.308Z,3.47
2022-08-27T02:26:42.011Z,3.08
2022-08-27T02:27:48.580Z,2.53
2022-08-27T02:28:53.102Z,3.45
2022-08-27T02:29:58.017Z,3.20
2022-08-27T02:31:03.444Z,3.70
2022-08-27T02:32:17.591Z,2.90
2022-08-27T02:33:28.268Z,3.45
2022-08-27T02:34:32.844Z,3.35
2022-08-27T02:35:44.662Z,3.85
2022-08-27T02:36:49.230Z,3.03
2022-08-27T02:37:54.725Z,2.95
2022-08-27T02:39:00.151Z,2.35
2022-08-27T02:40:07.869Z,2.83
2022-08-27T02:41:12.963Z,4.85
2022-08-27T02:42:17.684Z,4.13
2022-08-27T02:43:25.208Z,4.45
2022-08-27T02:44:31.721Z,2.97
2022-08-27T02:45:38.467Z,2.92
2022-08-27T02:46:43.277Z,3.47
2022-08-27T02:47:49.562Z,3.03
2022-08-27T02:48:54.080Z,3.42
2022-08-27T02:49:58.989Z,3.45
2022-08-27T02:51:07.505Z,3.10
2022-08-27T02:52:12.410Z,3.38
2022-08-27T02:53:18.966Z,3.83
2022-08-27T02:54:26.678Z,4.43
2022-08-27T02:55:31.801Z,3.33
2022-08-27T02:56:38.062Z,2.72
2022-08-27T02:57:44.443Z,3.05
2022-08-27T02:58:49.297Z,3.20
2022-08-27T02:59:55.402Z,4.00
2022-08-27T03:01:05.625Z,3.22
2022-08-27T03:02:17.933Z,3.55
2022-08-27T03:03:23.309Z,3.95
2022-08-27T03:04:29.581Z,3.65
2022-08-27T03:05:34.629Z,4.18
2022-08-27T03:06:50.494Z,2.70
2022-08-27T03:07:57.460Z,3.30
2022-08-27T03:09:11.680Z,4.40
2022-08-27T03:10:20.518Z,3.63
2022-08-27T03:11:25.441Z,3.45
2022-08-27T03:12:29.927Z,3.08
2022-08-27T03:13:39.389Z,2.85
2022-08-27T03:14:45.218Z,3.65
2022-08-27T03:15:50.310Z,3.05
2022-08-27T03:16:56.706Z,3.47
2022-08-27T03:18:20.176Z,3.90
2022-08-27T03:19:25.309Z,2.78
2022-08-27T03:20:30.317Z,4.03
2022-08-27T03:21:36.990Z,3.85
2022-08-27T03:22:42.519Z,3.55
2022-08-27T03:23:50.119Z,2.88
2022-08-27T03:24:55.867Z,3.35
2022-08-27T03:26:04.974Z,3.92
2022-08-27T03:27:10.490Z,2.90
2022-08-27T03:28:22.592Z,3.20
2022-08-27T03:29:28.724Z,3.60
2022-08-27T03:30:33.242Z,3.45
2022-08-27T03:31:38.853Z,3.60
2022-08-27T03:32:43.679Z,3.38
2022-08-27T03:33:48.431Z,3.92
2022-08-27T03:34:54.086Z,3.63
2022-08-27T03:36:00.334Z,4.03
2022-08-27T03:37:05.417Z,3.78
2022-08-27T03:38:11.302Z,3.35
2022-08-27T03:39:15.904Z,4.03
2022-08-27T03:40:21.763Z,3.08
2022-08-27T03:41:45.480Z,3.95
2022-08-27T03:42:52.887Z,3.15
2022-08-27T03:43:58.351Z,3.78
2022-08-27T03:45:04.966Z,3.95
2022-08-27T03:46:10.425Z,4.60
2022-08-27T03:47:16.326Z,4.15
2022-08-27T03:48:23.104Z,3.75
2022-08-27T03:49:29.398Z,3.60
2022-08-27T03:50:42.332Z,4.20
2022-08-27T03:51:47.698Z,4.13
2022-08-27T03:52:53.162Z,3.83
2022-08-27T03:53:58.118Z,3.67
2022-08-27T03:55:05.099Z,3.97
2022-08-27T03:56:11.864Z,3.58
2022-08-27T03:57:18.055Z,4.28
2022-08-27T03:58:22.163Z,3.85
2022-08-27T03:59:26.710Z,3.92
2022-08-27T04:00:32.855Z,4.07
2022-08-27T04:01:39.736Z,3.67
2022-08-27T04:02:49.200Z,3.90
2022-08-27T04:03:53.554Z,3.67
2022-08-27T04:04:59.617Z,4.22
2022-08-27T04:06:04.945Z,4.38
2022-08-27T04:07:10.758Z,3.90
2022-08-27T04:08:15.213Z,4.10
2022-08-27T04:09:20.031Z,4.13
2022-08-27T04:10:24.452Z,4.05
2022-08-27T04:11:29.787Z,3.90
2022-08-27T04:12:34.702Z,3.80
2022-08-27T04:13:41.518Z,3.50
2022-08-27T04:14:45.952Z,3.17
2022-08-27T04:15:53.486Z,3.95
2022-08-27T04:16:58.421Z,4.43
2022-08-27T04:18:04.702Z,4.22
2022-08-27T04:19:10.483Z,4.63
2022-08-27T04:20:35.805Z,3.10
2022-08-27T04:21:41.345Z,4.15
2022-08-27T04:22:46.489Z,3.50
2022-08-27T04:23:51.256Z,3.67
2022-08-27T04:24:58.208Z,3.22
2022-08-27T04:26:07.814Z,3.58
2022-08-27T04:27:12.133Z,4.45
2022-08-27T04:28:17.562Z,4.15
2022-08-27T04:29:22.602Z,4.45
2022-08-27T04:30:26.973Z,3.60
2022-08-27T04:31:32.057Z,4.00
2022-08-27T04:32:38.180Z,3.88
2022-08-27T04:33:43.935Z,3.80
2022-08-27T04:35:01.211Z,3.80
2022-08-27T04:36:11.476Z,3.65
2022-08-27T04:37:23.218Z,4.60
2022-08-27T04:38:29.401Z,4.35
2022-08-27T04:39:34.473Z,4.22
2022-08-27T04:40:58.342Z,4.00
2022-08-27T04:42:03.249Z,3.45
2022-08-27T04:43:07.556Z,4.25
2022-08-27T04:44:14.003Z,3.60
2022-08-27T04:45:18.958Z,4.05
2022-08-27T04:46:31.779Z,3.80
2022-08-27T04:47:36.928Z,4.80
2022-08-27T04:48:44.620Z,4.47
2022-08-27T04:49:49.750Z,3.95
2022-08-27T04:50:54.404Z,4.78
2022-08-27T04:51:59.504Z,3.60
2022-08-27T04:53:05.117Z,4.97
2022-08-27T04:54:12.328Z,3.80
2022-08-27T04:55:18.254Z,5.05
2022-08-27T04:56:25.977Z,3.50
2022-08-27T04:57:31.107Z,3.40
2022-08-27T04:58:36.912Z,3.83
2022-08-27T04:59:41.770Z,3.75
2022-08-27T05:00:53.719Z,4.13
2022-08-27T05:02:00.005Z,4.65
2022-08-27T05:03:08.422Z,4.15
2022-08-27T05:04:19.638Z,2.55
2022-08-27T05:05:28.924Z,4.07
2022-08-27T05:06:37.589Z,4.20
2022-08-27T05:07:42.432Z,3.10
2022-08-27T05:08:51.647Z,4.70
2022-08-27T05:09:56.359Z,3.55
2022-08-27T05:11:03.507Z,3.67
2022-08-27T05:12:09.154Z,4.38
2022-08-27T05:13:15.869Z,3.25
2022-08-27T05:14:22.517Z,3.97
2022-08-27T05:15:27.901Z,4.93
2022-08-27T05:16:33.571Z,3.67
2022-08-27T05:17:39.537Z,3.50
2022-08-27T05:18:48.114Z,4.05
2022-08-27T05:19:54.909Z,3.67
2022-08-27T05:21:00.930Z,4.15
2022-08-27T05:22:06.096Z,3.60
2022-08-27T05:23:12.328Z,4.28
2022-08-27T05:24:19.778Z,4.75
2022-08-27T05:25:27.482Z,5.00
2022-08-27T05:26:37.227Z,4.18
2022-08-27T05:27:42.243Z,3.67
2022-08-27T05:28:46.674Z,3.72
2022-08-27T05:29:51.006Z,4.28
2022-08-27T05:31:08.898Z,4.15
2022-08-27T05:32:13.848Z,3.55
2022-08-27T05:33:26.034Z,4.47
2022-08-27T05:34:32.464Z,4.32
2022-08-27T05:35:52.899Z,4.10
2022-08-27T05:37:01.633Z,4.22
2022-08-27T05:38:07.374Z,3.67
2022-08-27T05:39:11.710Z,3.97
2022-08-27T05:40:17.818Z,3.67
2022-08-27T05:41:34.170Z,3.58
2022-08-27T05:42:39.126Z,4.30
2022-08-27T05:43:49.929Z,4.22
2022-08-27T05:44:56.668Z,4.93
2022-08-27T05:46:08.062Z,4.10
2022-08-27T05:47:13.299Z,4.00
2022-08-27T05:48:19.274Z,4.68
2022-08-27T05:49:25.318Z,4.57
2022-08-27T05:50:30.016Z,4.68
2022-08-27T05:51:37.906Z,3.85
2022-08-27T05:52:42.967Z,3.78
2022-08-27T05:53:47.979Z,4.60
2022-08-27T05:54:55.850Z,3.63
2022-08-27T05:56:01.234Z,4.45
2022-08-27T05:57:08.403Z,4.43
2022-08-27T05:58:34.163Z,4.20
2022-08-27T05:59:57.457Z,4.10
2022-08-27T06:01:09.620Z,4.25
2022-08-27T06:02:15.365Z,4.50
2022-08-27T06:03:21.317Z,3.85
2022-08-27T06:04:27.117Z,4.32
2022-08-27T06:05:32.151Z,3.95
2022-08-27T06:06:40.798Z,3.67
2022-08-27T06:07:45.834Z,4.40
2022-08-27T06:08:54.110Z,3.58
2022-08-27T06:10:00.279Z,4.68
2022-08-27T06:11:08.954Z,4.88
2022-08-27T06:12:14.872Z,4.03
2022-08-27T06:13:20.367Z,4.50
2022-08-27T06:14:26.648Z,4.43
2022-08-27T06:15:32.308Z,4.97
2022-08-27T06:16:40.031Z,3.45
2022-08-27T06:17:44.526Z,4.32
2022-08-27T06:18:51.329Z,4.35
2022-08-27T06:19:57.361Z,7.03
2022-08-27T06:21:05.842Z,6.22
2022-08-27T06:22:11.129Z,5.47
2022-08-27T06:23:15.913Z,4.85
2022-08-27T06:24:24.137Z,5.82
2022-08-27T06:25:29.605Z,5.93
2022-08-27T06:26:36.210Z,4.95
2022-08-27T06:27:41.998Z,4.82
2022-08-27T06:28:46.897Z,5.50
2022-08-27T06:29:52.477Z,5.03
2022-08-27T06:31:26.602Z,5.57
2022-08-27T06:32:32.037Z,5.18
2022-08-27T06:33:38.173Z,5.47
2022-08-27T06:34:43.383Z,5.97
2022-08-27T06:35:49.382Z,6.20
2022-08-27T06:36:56.500Z,6.55
2022-08-27T06:38:04.416Z,6.30
2022-08-27T06:39:14.434Z,6.05
2022-08-27T06:40:23.883Z,7.22
2022-08-27T06:41:30.361Z,6.97
2022-08-27T06:42:39.015Z,7.13
2022-08-27T06:43:46.423Z,8.13
2022-08-27T06:44:51.255Z,7.13
2022-08-27T06:45:57.263Z,7.38
2022-08-27T06:47:04.820Z,7.57
2022-08-27T06:48:10.211Z,6.90
2022-08-27T06:49:19.180Z,7.65
2022-08-27T06:50:27.376Z,7.97
2022-08-27T06:51:36.264Z,7.53
2022-08-27T06:52:43.620Z,7.00
2022-08-27T06:53:51.954Z,7.18
2022-08-27T06:54:57.471Z,6.80
2022-08-27T06:56:03.669Z,6.50
2022-08-27T06:57:10.526Z,5.68
2022-08-27T06:58:22.002Z,7.60
2022-08-27T06:59:28.423Z,6.45
2022-08-27T07:00:33.959Z,7.75
2022-08-27T07:01:44.277Z,7.25
2022-08-27T07:02:56.369Z,6.38
2022-08-27T07:04:05.723Z,6.35
2022-08-27T07:05:12.484Z,7.25
2022-08-27T07:06:18.850Z,6.72
2022-08-27T07:07:30.197Z,6.18
2022-08-27T07:08:43.782Z,6.70
2022-08-27T07:10:00.473Z,5.60
2022-08-27T07:11:10.071Z,5.93
2022-08-27T07:12:17.032Z,6.68
2022-08-27T07:13:25.285Z,6.47
2022-08-27T07:14:37.149Z,5.78
2022-08-27T07:15:44.706Z,7.18
2022-08-27T07:16:51.704Z,5.45
2022-08-27T07:18:00.410Z,7.07
2022-08-27T07:19:07.302Z,5.82
2022-08-27T07:20:14.739Z,5.65
2022-08-27T07:21:20.578Z,5.45
2022-08-27T07:22:26.426Z,5.32
2022-08-27T07:23:34.083Z,5.43
2022-08-27T07:24:38.854Z,5.82
2022-08-27T07:25:44.413Z,5.80
2022-08-27T07:26:51.178Z,6.13
2022-08-27T07:27:56.714Z,5.22
2022-08-27T07:29:04.740Z,4.88
2022-08-27T07:30:16.579Z,5.47
2022-08-27T07:31:25.794Z,6.07
2022-08-27T07:32:33.039Z,5.82
2022-08-27T07:33:46.016Z,6.20
2022-08-27T07:35:00.864Z,4.75
2022-08-27T07:36:10.881Z,5.32
2022-08-27T07:37:16.790Z,5.60
2022-08-27T07:38:23.466Z,5.00
2022-08-27T07:39:31.375Z,6.72
2022-08-27T07:40:38.550Z,4.82
2022-08-27T07:42:05.887Z,5.45
2022-08-27T07:43:30.693Z,5.22
2022-08-27T07:44:42.399Z,4.43
2022-08-27T07:45:57.833Z,5.55
2022-08-27T07:47:04.668Z,4.90
2022-08-27T07:48:12.279Z,5.68
2022-08-27T07:49:18.934Z,6.28
2022-08-27T07:50:26.164Z,5.88
2022-08-27T07:51:33.333Z,5.55
2022-08-27T07:52:42.251Z,4.80
2022-08-27T07:53:50.158Z,5.25
2022-08-27T07:54:57.710Z,5.35
2022-08-27T07:56:09.184Z,4.93
2022-08-27T07:57:16.221Z,5.93
2022-08-27T07:58:21.716Z,4.90
2022-08-27T07:59:29.531Z,5.78
2022-08-27T08:00:36.040Z,4.85
2022-08-27T08:01:48.482Z,5.25
2022-08-27T08:02:53.365Z,4.97
2022-08-27T08:03:58.508Z,5.28
2022-08-27T08:05:03.461Z,4.78
2022-08-27T08:06:14.698Z,4.65
2022-08-27T08:07:19.389Z,4.40
2022-08-27T08:08:25.422Z,5.05
2022-08-27T08:09:34.683Z,4.75
2022-08-27T08:10:43.419Z,4.47
2022-08-27T08:11:49.327Z,5.43
2022-08-27T08:12:55.422Z,4.78
2022-08-27T08:14:02.767Z,4.65
2022-08-27T08:15:11.195Z,5.03
2022-08-27T08:16:16.583Z,4.60
2022-08-27T08:17:23.506Z,4.95
2022-08-27T08:18:31.238Z,4.05
2022-08-27T08:19:36.215Z,4.28
2022-08-27T08:20:57.557Z,4.93
2022-08-27T08:22:06.089Z,4.47
2022-08-27T08:23:10.787Z,3.67
2022-08-27T08:24:16.040Z,4.72
2022-08-27T08:25:23.448Z,4.22
2022-08-27T08:26:30.089Z,4.72
2022-08-27T08:27:36.716Z,4.80
2022-08-27T08:28:42.019Z,5.28
2022-08-27T08:29:48.482Z,5.18
2022-08-27T08:30:57.993Z,4.72
2022-08-27T08:32:06.237Z,4.07
2022-08-27T08:33:11.040Z,3.95
2022-08-27T08:34:16.108Z,4.32
2022-08-27T08:35:25.255Z,4.63
2022-08-27T08:36:30.815Z,3.90
2022-08-27T08:37:38.881Z,4.07
2022-08-27T08:38:48.790Z,3.90
2022-08-27T08:39:55.797Z,3.40
2022-08-27T08:41:02.332Z,3.30
2022-08-27T08:42:26.098Z,3.42
2022-08-27T08:43:40.002Z,3.92
2022-08-27T08:44:54.085Z,3.75
2022-08-27T08:46:18.663Z,3.72
2022-08-27T08:47:57.459Z,3.42
2022-08-27T08:49:45.361Z,3.95
2022-08-27T08:51:16.961Z,2.88
2022-08-27T08:52:55.688Z,3.20
2022-08-27T08:54:10.356Z,2.75
2022-08-27T08:55:49.574Z,2.90
2022-08-27T08:57:25.813Z,3.60
2022-08-27T08:59:17.002Z,2.78
2022-08-27T09:00:22.262Z,3.03
2022-08-27T09:01:30.037Z,3.25
2022-08-27T09:02:35.303Z,2.83
2022-08-27T09:03:49.132Z,3.38
2022-08-27T09:04:56.863Z,2.85
2022-08-27T09:06:19.079Z,2.78
2022-08-27T09:08:32.931Z,3.75
2022-08-27T09:10:08.618Z,2.97
2022-08-27T09:11:30.505Z,2.85
2022-08-27T09:12:35.505Z,2.65
2022-08-27T09:14:31.684Z,2.97
2022-08-27T09:15:40.101Z,2.88
2022-08-27T09:16:47.101Z,3.03
2022-08-27T09:17:52.203Z,2.40
2022-08-27T09:19:06.156Z,3.35
2022-08-27T09:20:14.243Z,2.67
2022-08-27T09:21:43.951Z,2.65
2022-08-27T09:23:05.854Z,2.55
2022-08-27T09:24:24.255Z,3.00
2022-08-27T09:25:38.114Z,2.35
2022-08-27T09:26:46.704Z,2.47
2022-08-27T09:27:57.509Z,2.78
2022-08-27T09:29:22.263Z,2.72
2022-08-27T09:30:33.317Z,2.63
2022-08-27T09:31:42.455Z,2.90
2022-08-27T09:33:01.091Z,2.60
2022-08-27T09:34:06.295Z,2.88
2022-08-27T09:35:14.061Z,3.03
2022-08-27T09:36:23.702Z,2.72
2022-08-27T09:37:44.592Z,2.75
2022-08-27T09:39:08.106Z,2.42
2022-08-27T09:40:24.819Z,2.55
2022-08-27T09:41:43.545Z,2.42
2022-08-27T09:42:57.615Z,2.17
2022-08-27T09:44:15.162Z,2.60
2022-08-27T09:45:30.998Z,2.78
2022-08-27T09:46:36.587Z,2.72
2022-08-27T09:47:50.502Z,2.13
2022-08-27T09:48:58.131Z,2.60
2022-08-27T09:50:09.438Z,2.40
2022-08-27T09:51:24.105Z,2.60
2022-08-27T09:52:59.518Z,1.95
2022-08-27T09:54:05.156Z,2.38
2022-08-27T09:55:11.831Z,2.70
2022-08-27T09:56:30.392Z,2.42
2022-08-27T09:57:42.174Z,2.47
2022-08-27T09:59:12.485Z,2.08
2022-08-27T10:00:18.450Z,2.28
2022-08-27T10:01:29.329Z,2.78
2022-08-27T10:02:34.160Z,1.80
2022-08-27T10:03:38.241Z,2.05
2022-08-27T10:04:53.609Z,2.45
2022-08-27T10:05:58.668Z,3.08
2022-08-27T10:07:54.020Z,1.70
2022-08-27T10:09:22.307Z,2.13
2022-08-27T10:11:17.712Z,2.42
2022-08-27T10:13:18.124Z,2.90
2022-08-27T10:14:41.897Z,2.72
2022-08-27T10:16:17.975Z,2.90
2022-08-27T10:17:34.686Z,3.00
2022-08-27T10:18:54.678Z,2.33
2022-08-27T10:20:30.606Z,2.83
2022-08-27T10:21:57.192Z,2.17
2022-08-27T10:23:29.775Z,2.88
2022-08-27T10:25:03.394Z,3.03
2022-08-27T10:26:25.104Z,2.60
2022-08-27T10:27:57.122Z,2.97
2022-08-27T10:29:22.434Z,2.00
2022-08-27T10:30:40.292Z,2.53
2022-08-27T10:32:16.577Z,2.25
2022-08-27T10:33:59.183Z,1.92
2022-08-27T10:35:54.849Z,2.40
2022-08-27T10:37:24.868Z,1.95
2022-08-27T10:38:54.452Z,2.95
2022-08-27T10:40:52.518Z,2.25
2022-08-27T10:42:18.501Z,2.35
2022-08-27T10:44:05.778Z,2.50
2022-08-27T10:45:43.064Z,2.05
2022-08-27T10:47:19.617Z,2.45
2022-08-27T10:48:41.702Z,2.22
2022-08-27T10:50:16.091Z,2.13
2022-08-27T10:51:38.467Z,2.28
2022-08-27T10:53:09.736Z,2.10
2022-08-27T10:54:39.030Z,2.67
2022-08-27T10:55:52.638Z,2.63
2022-08-27T10:57:39.923Z,2.25
2022-08-27T10:59:33.711Z,1.85
2022-08-27T11:01:16.066Z,1.80
2022-08-27T11:03:01.722Z,2.03
2022-08-27T11:04:19.143Z,2.50
2022-08-27T11:05:49.604Z,2.00
2022-08-27T11:07:12.951Z,2.05
2022-08-27T11:08:53.684Z,2.00
2022-08-27T11:10:09.903Z,2.05
2022-08-27T11:13:39.923Z,2.28
2022-08-27T11:15:17.173Z,2.47
2022-08-27T11:16:48.909Z,1.80
2022-08-27T11:18:19.007Z,2.33
2022-08-27T11:19:54.973Z,2.00
2022-08-27T11:21:11.086Z,2.88
2022-08-27T11:22:38.068Z,2.45
2022-08-27T11:24:02.959Z,2.05
2022-08-27T11:25:23.070Z,2.50
2022-08-27T11:26:32.232Z,2.33
2022-08-27T11:27:40.265Z,1.92
2022-08-27T11:28:53.099Z,2.15
2022-08-27T11:30:27.473Z,1.98
2022-08-27T11:31:53.621Z,2.38
2022-08-27T11:33:13.885Z,2.25
2022-08-27T11:34:48.624Z,3.05
2022-08-27T11:36:11.336Z,2.10
2022-08-27T11:37:43.153Z,2.42
2022-08-27T11:39:34.185Z,2.20
2022-08-27T11:40:57.651Z,2.17
2022-08-27T11:42:10.813Z,2.20
2022-08-27T11:43:26.543Z,2.20
2022-08-27T11:44:32.306Z,2.40
2022-08-27T11:45:58.366Z,2.40
2022-08-27T11:47:25.283Z,3.00
2022-08-27T11:48:37.222Z,2.85
2022-08-27T11:49:57.928Z,2.38
2022-08-27T11:51:08.276Z,2.30
2022-08-27T11:52:23.541Z,2.33
2022-08-27T11:53:49.022Z,2.45
2022-08-27T11:55:29.409Z,3.03
2022-08-27T11:56:44.526Z,2.35
2022-08-27T11:58:29.773Z,2.22
2022-08-27T11:59:37.890Z,3.40
2022-08-27T12:00:45.016Z,2.50
2022-08-27T12:01:54.590Z,2.15
2022-08-27T12:03:09.449Z,2.60
2022-08-27T12:04:32.204Z,2.58
2022-08-27T12:05:45.724Z,2.25
2022-08-27T12:07:18.064Z,2.40
2022-08-27T12:08:23.032Z,2.72
2022-08-27T12:09:29.256Z,2.58
2022-08-27T12:11:07.656Z,2.45
2022-08-27T12:12:47.598Z,2.55
2022-08-27T12:14:15.321Z,2.53
2022-08-27T12:15:58.901Z,2.50
2022-08-27T12:17:33.276Z,2.50
2022-08-27T12:19:04.457Z,2.75
2022-08-27T12:20:34.960Z,2.45
2022-08-27T12:22:21.756Z,2.53
2022-08-27T12:23:51.801Z,2.25
2022-08-27T12:24:59.899Z,2.33
2022-08-27T12:26:36.328Z,2.22
2022-08-27T12:27:41.041Z,2.33
2022-08-27T12:28:45.858Z,2.10
2022-08-27T12:29:54.905Z,2.63
2022-08-27T12:30:59.919Z,2.30
2022-08-27T12:32:36.374Z,2.65
2022-08-27T12:33:47.446Z,2.40
2022-08-27T12:35:11.415Z,2.47
2022-08-27T12:36:28.698Z,2.28
2022-08-27T12:37:40.916Z,2.90
2022-08-27T12:38:56.191Z,2.17
2022-08-27T12:40:13.198Z,2.22
2022-08-27T12:41:43.783Z,2.05
2022-08-27T12:42:49.739Z,2.13
2022-08-27T12:44:09.312Z,2.45
2022-08-27T12:45:25.914Z,2.88
2022-08-27T12:46:31.546Z,2.70
2022-08-27T12:47:50.638Z,3.03
2022-08-27T12:49:38.180Z,2.67
2022-08-27T12:50:31.564Z,2.42
2022-08-27T12:51:41.402Z,1.88
2022-08-27T12:53:16.468Z,2.22
2022-08-27T12:54:38.464Z,1.88
2022-08-27T12:56:31.135Z,2.15
2022-08-27T12:58:13.532Z,2.90
2022-08-27T12:59:47.126Z,2.65
2022-08-27T13:01:45.783Z,2.17
2022-08-27T13:02:59.528Z,2.42
2022-08-27T13:04:18.274Z,1.95
2022-08-27T13:05:25.353Z,2.20
2022-08-27T13:06:35.802Z,2.28
2022-08-27T13:07:47.480Z,2.78
2022-08-27T13:09:02.621Z,2.47
2022-08-27T13:10:24.666Z,2.58
2022-08-27T13:11:44.510Z,2.00
2022-08-27T13:13:05.431Z,2.10
2022-08-27T13:14:15.265Z,2.38
2022-08-27T13:15:21.045Z,2.30
2022-08-27T13:16:26.064Z,2.67
2022-08-27T13:17:30.737Z,2.40
2022-08-27T13:18:37.358Z,1.55
2022-08-27T13:20:02.967Z,2.30
2022-08-27T13:21:47.564Z,2.28
2022-08-27T13:22:54.842Z,2.65
2022-08-27T13:24:10.802Z,2.63
2022-08-27T13:25:42.363Z,1.95
2022-08-27T13:26:58.223Z,1.92
2022-08-27T13:28:14.638Z,2.17
2022-08-27T13:29:20.295Z,2.08
2022-08-27T13:30:35.822Z,2.15
2022-08-27T13:31:41.813Z,1.98
2022-08-27T13:32:48.822Z,2.42
2022-08-27T13:34:00.428Z,2.00
2022-08-27T13:35:07.823Z,2.20
2022-08-27T13:36:13.451Z,2.70
2022-08-27T13:37:42.142Z,1.83
2022-08-27T13:38:50.290Z,1.90
2022-08-27T13:39:58.627Z,2.40
2022-08-27T13:41:10.212Z,2.00
2022-08-27T13:42:16.092Z,2.70
2022-08-27T13:43:38.285Z,2.05
2022-08-27T13:44:48.301Z,2.20
2022-08-27T13:45:59.827Z,1.80
2022-08-27T13:47:26.934Z,1.55
2022-08-27T13:48:33.472Z,2.00
2022-08-27T13:49:40.122Z,2.42
2022-08-27T13:50:56.576Z,2.42
2022-08-27T13:52:09.693Z,2.80
2022-08-27T13:53:47.376Z,2.78
2022-08-27T13:55:06.432Z,2.20
2022-08-27T13:56:11.558Z,1.73
2022-08-27T13:57:28.840Z,1.85
2022-08-27T13:58:36.359Z,2.08
2022-08-27T13:59:43.354Z,2.60
2022-08-27T14:00:48.512Z,2.10
2022-08-27T14:02:33.734Z,1.90
2022-08-27T14:04:03.638Z,2.60
2022-08-27T14:05:29.826Z,1.73
2022-08-27T14:06:44.965Z,2.08
2022-08-27T14:07:58.778Z,1.60
2022-08-27T14:09:31.014Z,2.60
2022-08-27T14:10:45.458Z,2.15
2022-08-27T14:11:50.239Z,2.47
2022-08-27T14:13:07.436Z,2.58
2022-08-27T14:14:14.145Z,2.15
2022-08-27T14:15:43.382Z,2.15
2022-08-27T14:17:03.812Z,2.78
2022-08-27T14:18:57.366Z,2.25
2022-08-27T14:20:04.413Z,2.28
2022-08-27T14:21:10.733Z,2.03
2022-08-27T14:22:16.529Z,2.42
2022-08-27T14:23:21.963Z,2.47
2022-08-27T14:24:29.436Z,2.10
2022-08-27T14:25:35.297Z,2.22
2022-08-27T14:26:39.632Z,2.50
2022-08-27T14:27:53.094Z,2.65
2022-08-27T14:28:58.958Z,2.03
2022-08-27T14:30:05.425Z,2.15
2022-08-27T14:31:10.235Z,2.13
2022-08-27T14:32:19.741Z,2.25
2022-08-27T14:33:24.490Z,2.13
2022-08-27T14:34:29.726Z,1.92
2022-08-27T14:35:37.298Z,1.83
2022-08-27T14:36:44.594Z,2.13
2022-08-27T14:37:50.018Z,2.47
2022-08-27T14:38:54.933Z,1.98
2022-08-27T14:40:00.671Z,1.75
2022-08-27T14:41:08.766Z,2.40
2022-08-27T14:42:15.226Z,2.35
2022-08-27T14:43:21.097Z,2.75
2022-08-27T14:44:29.006Z,2.78
2022-08-27T14:45:34.992Z,2.30
2022-08-27T14:46:43.004Z,2.08
2022-08-27T14:47:49.362Z,2.83
2022-08-27T14:48:58.564Z,2.08
2022-08-27T14:50:04.559Z,2.15
2022-08-27T14:51:19.662Z,1.77
2022-08-27T14:52:24.215Z,2.00
2022-08-27T14:53:28.807Z,2.22
2022-08-27T14:54:33.831Z,2.00
2022-08-27T14:55:38.561Z,2.55
2022-08-27T14:56:46.031Z,2.17
2022-08-27T14:57:51.584Z,2.78
2022-08-27T14:58:57.562Z,2.30
2022-08-27T15:00:02.042Z,1.70
2022-08-27T15:01:07.085Z,1.63
2022-08-27T15:02:14.537Z,2.17
2022-08-27T15:03:20.179Z,2.33
2022-08-27T15:04:26.777Z,1.98
2022-08-27T15:05:32.265Z,1.85
2022-08-27T15:06:38.313Z,2.22
2022-08-27T15:07:47.120Z,2.17
2022-08-27T15:08:55.597Z,2.50
2022-08-27T15:10:01.249Z,2.15
2022-08-27T15:11:07.543Z,1.75
2022-08-27T15:12:26.034Z,2.40
2022-08-27T15:13:33.021Z,2.05
2022-08-27T15:14:39.085Z,1.58
2022-08-27T15:15:44.330Z,2.05
2022-08-27T15:16:50.052Z,2.55
2022-08-27T15:17:55.156Z,2.00
2022-08-27T15:19:01.925Z,1.92
2022-08-27T15:20:19.930Z,1.98
2022-08-27T15:21:27.387Z,1.58
2022-08-27T15:22:38.476Z,2.72
2022-08-27T15:23:49.436Z,2.20
2022-08-27T15:24:58.825Z,1.80
2022-08-27T15:26:03.538Z,2.17
2022-08-27T15:27:14.967Z,2.00
2022-08-27T15:28:23.308Z,1.83
2022-08-27T15:29:36.751Z,1.80
2022-08-27T15:30:41.738Z,1.85
2022-08-27T15:31:48.218Z,1.83
2022-08-27T15:32:54.325Z,1.98
2022-08-27T15:33:59.712Z,1.83
2022-08-27T15:35:13.263Z,3.13
2022-08-27T15:36:18.157Z,1.80
2022-08-27T15:37:23.592Z,2.03
2022-08-27T15:38:28.512Z,1.77
2022-08-27T15:39:33.383Z,2.10
2022-08-27T15:40:38.859Z,2.15
2022-08-27T15:42:05.315Z,2.50
2022-08-27T15:43:10.880Z,2.20
2022-08-27T15:44:17.091Z,2.08
2022-08-27T15:45:25.568Z,2.00
2022-08-27T15:46:32.492Z,2.08
2022-08-27T15:47:36.643Z,1.67
2022-08-27T15:48:41.733Z,2.08
2022-08-27T15:49:47.527Z,2.28
2022-08-27T15:50:53.751Z,2.55
2022-08-27T15:51:59.610Z,2.53
2022-08-27T15:53:09.806Z,2.55
2022-08-27T15:54:15.185Z,3.28
2022-08-27T15:55:31.938Z,2.53
2022-08-27T15:56:36.558Z,3.53
2022-08-27T15:57:41.509Z,2.47
2022-08-27T15:58:47.566Z,2.92
2022-08-27T15:59:51.675Z,2.28
2022-08-27T16:01:02.108Z,2.30
2022-08-27T16:02:17.282Z,2.83
2022-08-27T16:03:33.198Z,3.55
2022-08-27T16:04:47.754Z,3.05
2022-08-27T16:05:56.245Z,2.85
2022-08-27T16:07:01.550Z,3.03
2022-08-27T16:08:07.270Z,2.95
2022-08-27T16:09:11.974Z,3.65